Time;durP1;ratioP1;P1;durP2;ratioP2;P2;SDS_P1;SDS_P2;PMS_P1;PMS_P2;Temp;Humidity;BMP_temperature;BMP_pressure;BME280_temperature;BME280_humidity;BME280_pressure;Samples;Min_cycle;Max_cycle;Signal;HPM_P1;HPM_P2
2023/07/22 00:02:06;;;;;;;10.80;5.95;;;13.60;99.90;;;;;;4947417;28;20432;-49
2023/07/22 00:04:32;;;;;;;8.48;5.35;;;13.60;99.90;;;;;;4950757;28;20038;-48
2023/07/22 00:06:57;;;;;;;11.65;5.72;;;13.60;99.90;;;;;;4950443;28;20102;-48
2023/07/22 00:09:24;;;;;;;12.52;5.70;;;13.60;99.90;;;;;;4946879;28;20047;-49
2023/07/22 00:11:50;;;;;;;12.43;5.43;;;13.60;99.90;;;;;;4962469;28;20050;-50
2023/07/22 00:14:16;;;;;;;9.05;5.20;;;13.60;99.90;;;;;;4950052;28;20050;-49
2023/07/22 00:16:42;;;;;;;10.90;5.35;;;13.60;99.90;;;;;;4966487;28;20460;-51
2023/07/22 00:19:08;;;;;;;10.18;4.90;;;13.60;99.90;;;;;;4949276;28;20082;-51
2023/07/22 00:21:34;;;;;;;11.82;5.05;;;13.60;99.90;;;;;;4968524;28;20129;-49
2023/07/22 00:24:00;;;;;;;9.38;4.93;;;13.60;99.90;;;;;;4966730;28;20047;-50
2023/07/22 00:26:27;;;;;;;9.82;5.47;;;13.50;99.90;;;;;;4949250;28;20043;-51
2023/07/22 00:28:52;;;;;;;11.30;4.70;;;13.50;99.90;;;;;;4967330;28;20045;-50
2023/07/22 00:31:18;;;;;;;10.57;4.53;;;13.50;99.90;;;;;;4969228;28;20489;-48
2023/07/22 00:33:44;;;;;;;13.35;4.95;;;13.40;99.90;;;;;;4963270;28;20047;-51
2023/07/22 00:36:10;;;;;;;7.30;4.35;;;13.40;99.90;;;;;;4969537;28;20176;-48
2023/07/22 00:38:35;;;;;;;9.70;4.43;;;13.40;99.90;;;;;;4967772;28;20038;-50
2023/07/22 00:41:04;;;;;;;10.50;4.85;;;13.30;99.90;;;;;;4971001;28;20046;-49
2023/07/22 00:43:30;;;;;;;10.68;4.25;;;13.30;99.90;;;;;;4968058;28;20076;-50
2023/07/22 00:45:56;;;;;;;7.35;3.92;;;13.30;99.90;;;;;;4966506;28;20124;-48
2023/07/22 00:48:22;;;;;;;7.50;3.90;;;13.20;99.90;;;;;;4949964;28;20497;-50
2023/07/22 00:50:48;;;;;;;7.80;3.92;;;13.20;99.90;;;;;;4970662;28;20173;-48
2023/07/22 00:53:14;;;;;;;8.15;4.13;;;13.20;99.90;;;;;;4952238;28;20038;-50
2023/07/22 00:55:41;;;;;;;7.68;4.05;;;13.20;99.90;;;;;;4970960;28;20456;-51
2023/07/22 00:58:06;;;;;;;9.18;3.97;;;13.10;99.90;;;;;;4957000;28;20053;-48
2023/07/22 01:00:32;;;;;;;7.30;4.22;;;13.10;99.90;;;;;;4966980;28;20046;-50
2023/07/22 01:02:59;;;;;;;6.90;3.83;;;13.10;99.90;;;;;;4967856;28;20042;-51
2023/07/22 01:05:27;;;;;;;8.27;4.55;;;13.10;99.90;;;;;;4965714;28;20054;-49
2023/07/22 01:07:53;;;;;;;10.63;4.05;;;13.10;99.90;;;;;;4969325;28;20046;-49
2023/07/22 01:10:19;;;;;;;8.02;4.47;;;13.00;99.90;;;;;;4962531;28;20046;-48
2023/07/22 01:12:45;;;;;;;11.73;4.70;;;13.00;99.90;;;;;;4966092;28;20485;-48
2023/07/22 01:15:11;;;;;;;10.15;4.32;;;13.00;99.90;;;;;;4963697;28;20132;-48
2023/07/22 01:17:38;;;;;;;9.25;4.90;;;13.00;99.90;;;;;;4965063;28;20062;-49
2023/07/22 01:20:05;;;;;;;9.93;4.47;;;12.90;99.90;;;;;;4967142;28;20085;-50
2023/07/22 01:22:33;;;;;;;7.35;4.50;;;12.90;99.90;;;;;;4963514;28;20047;-48
2023/07/22 01:24:59;;;;;;;7.95;4.78;;;12.90;99.90;;;;;;4962203;28;20058;-49
2023/07/22 01:27:25;;;;;;;10.07;5.25;;;12.90;99.90;;;;;;4961414;28;20682;-49
2023/07/22 01:29:51;;;;;;;10.35;4.80;;;12.80;99.90;;;;;;4944634;28;20054;-48
2023/07/22 01:32:17;;;;;;;8.55;4.95;;;12.80;99.90;;;;;;4943689;28;20053;-51
2023/07/22 01:34:43;;;;;;;7.03;4.25;;;12.80;99.90;;;;;;4954484;28;20105;-48
2023/07/22 01:37:12;;;;;;;10.88;4.95;;;12.70;99.90;;;;;;4960653;28;20047;-49
2023/07/22 01:39:37;;;;;;;10.40;4.45;;;12.70;99.90;;;;;;4959102;28;20130;-49
2023/07/22 01:42:03;;;;;;;10.88;4.90;;;12.70;99.90;;;;;;4958100;28;20126;-48
2023/07/22 01:44:30;;;;;;;9.65;5.13;;;12.70;99.90;;;;;;4967840;28;20197;-48
2023/07/22 01:46:57;;;;;;;8.68;4.32;;;12.60;99.90;;;;;;4967435;28;20057;-49
2023/07/22 01:49:24;;;;;;;8.52;4.20;;;12.60;99.90;;;;;;4965116;28;20085;-48
2023/07/22 01:51:50;;;;;;;7.53;4.45;;;12.60;99.90;;;;;;4967100;28;20070;-50
2023/07/22 01:54:15;;;;;;;5.95;4.07;;;12.60;99.90;;;;;;4971393;28;20417;-52
2023/07/22 01:56:41;;;;;;;8.65;4.57;;;12.60;99.90;;;;;;4947946;28;20101;-48
2023/07/22 01:59:08;;;;;;;8.45;4.28;;;12.60;99.90;;;;;;4947954;28;20046;-50
2023/07/22 02:01:34;;;;;;;7.45;4.78;;;12.60;99.90;;;;;;4954897;28;20106;-49
2023/07/22 02:03:59;;;;;;;9.07;4.10;;;12.60;99.90;;;;;;4959982;28;20541;-50
2023/07/22 02:06:26;;;;;;;8.60;4.40;;;12.50;99.90;;;;;;4952147;28;20595;-49
2023/07/22 02:08:53;;;;;;;8.65;4.43;;;12.50;99.90;;;;;;4961146;28;20078;-49
2023/07/22 02:11:18;;;;;;;6.93;4.05;;;12.50;99.90;;;;;;4957337;28;20077;-49
2023/07/22 02:13:44;;;;;;;8.57;4.20;;;12.50;99.90;;;;;;4958992;28;20042;-49
2023/07/22 02:16:13;;;;;;;10.07;4.30;;;12.40;99.90;;;;;;4959418;28;20050;-48
2023/07/22 02:18:39;;;;;;;9.55;4.10;;;12.40;99.90;;;;;;4930298;28;20055;-50
2023/07/22 02:21:04;;;;;;;7.35;4.18;;;12.40;99.90;;;;;;4936353;28;20074;-47
2023/07/22 02:23:30;;;;;;;9.05;4.30;;;12.40;99.90;;;;;;4948034;28;20047;-48
2023/07/22 02:25:56;;;;;;;10.15;4.50;;;12.30;99.90;;;;;;4952870;28;20383;-48
2023/07/22 02:28:23;;;;;;;9.02;3.95;;;12.30;99.90;;;;;;4927825;28;20445;-48
2023/07/22 02:30:50;;;;;;;6.40;3.80;;;12.30;99.90;;;;;;4948733;28;20042;-50
2023/07/22 02:33:16;;;;;;;5.50;3.83;;;12.30;99.90;;;;;;4927046;28;20553;-48
2023/07/22 02:35:42;;;;;;;9.38;4.13;;;12.30;99.90;;;;;;4929819;28;20039;-48
2023/07/22 02:38:08;;;;;;;7.18;3.75;;;12.20;99.90;;;;;;4941752;28;20107;-48
2023/07/22 02:40:37;;;;;;;6.97;3.70;;;12.20;99.90;;;;;;4950196;28;20043;-49
2023/07/22 02:43:03;;;;;;;6.70;3.90;;;12.10;99.90;;;;;;4937102;28;21014;-49
2023/07/22 02:45:29;;;;;;;10.60;4.00;;;12.10;99.90;;;;;;4962278;28;20046;-51
2023/07/22 02:47:55;;;;;;;8.32;3.83;;;12.10;99.90;;;;;;4963472;28;20038;-49
2023/07/22 02:50:21;;;;;;;4.90;3.30;;;12.00;99.90;;;;;;4963475;28;20385;-49
2023/07/22 02:52:47;;;;;;;8.88;3.95;;;12.00;99.90;;;;;;4964058;28;20037;-50
2023/07/22 02:55:18;;;;;;;5.65;3.75;;;12.00;99.90;;;;;;4961753;28;20042;-50
2023/07/22 02:57:46;;;;;;;5.90;3.30;;;12.00;99.90;;;;;;4954237;28;20088;-48
2023/07/22 03:00:13;;;;;;;8.35;4.10;;;12.00;99.90;;;;;;4952893;28;20038;-49
2023/07/22 03:02:39;;;;;;;9.38;3.83;;;12.00;99.90;;;;;;4953559;28;20113;-49
2023/07/22 03:05:07;;;;;;;9.68;4.13;;;12.00;99.90;;;;;;4954258;28;20046;-49
2023/07/22 03:07:34;;;;;;;7.57;3.90;;;12.00;99.90;;;;;;4929814;28;20074;-48
2023/07/22 03:10:00;;;;;;;8.45;3.50;;;12.00;99.90;;;;;;4963513;28;20117;-49
2023/07/22 03:12:27;;;;;;;9.20;3.60;;;12.00;99.90;;;;;;4958354;28;20538;-48
2023/07/22 03:14:53;;;;;;;8.13;3.67;;;12.00;99.90;;;;;;4958283;28;20054;-51
2023/07/22 03:17:19;;;;;;;6.97;3.90;;;12.00;99.90;;;;;;4956918;28;20120;-49
2023/07/22 03:19:45;;;;;;;9.65;4.10;;;12.00;99.90;;;;;;4962436;28;20162;-50
2023/07/22 03:22:14;;;;;;;6.22;3.70;;;12.00;99.90;;;;;;4973276;28;20416;-48
2023/07/22 03:24:40;;;;;;;7.38;4.32;;;12.00;99.90;;;;;;4969867;28;20389;-50
2023/07/22 03:27:06;;;;;;;10.55;4.03;;;12.00;99.90;;;;;;4964956;28;20034;-48
2023/07/22 03:29:32;;;;;;;7.95;4.40;;;12.00;99.90;;;;;;4967278;28;20076;-48
2023/07/22 03:31:59;;;;;;;9.45;4.18;;;12.00;99.90;;;;;;4940336;28;20150;-51
2023/07/22 03:34:29;;;;;;;9.20;4.47;;;12.00;99.90;;;;;;4961244;28;20460;-51
2023/07/22 03:36:55;;;;;;;9.93;4.50;;;12.00;99.90;;;;;;4960805;28;20077;-51
2023/07/22 03:39:21;;;;;;;14.02;5.10;;;12.00;99.90;;;;;;4959047;28;20913;-48
2023/07/22 03:41:46;;;;;;;12.00;5.40;;;12.00;99.90;;;;;;4975171;28;20042;-49
2023/07/22 03:44:12;;;;;;;8.95;4.88;;;12.00;99.90;;;;;;4957754;28;20053;-49
2023/07/22 03:46:38;;;;;;;8.45;4.60;;;12.00;99.90;;;;;;4974117;28;20039;-52
2023/07/22 03:49:04;;;;;;;8.85;5.15;;;12.00;99.90;;;;;;4970960;28;20083;-49
2023/07/22 03:51:30;;;;;;;9.25;5.03;;;12.00;99.90;;;;;;4977304;28;20425;-49
2023/07/22 03:53:56;;;;;;;9.23;4.40;;;12.00;99.90;;;;;;4967431;28;20057;-50
2023/07/22 03:56:23;;;;;;;7.80;4.75;;;12.00;99.90;;;;;;4974898;28;20046;-49
2023/07/22 03:58:50;;;;;;;8.90;4.72;;;12.00;99.90;;;;;;4972371;28;20043;-48
2023/07/22 04:01:15;;;;;;;9.23;5.05;;;12.00;99.90;;;;;;4966572;28;20394;-50
2023/07/22 04:03:41;;;;;;;13.05;5.40;;;12.00;99.90;;;;;;4971646;28;20440;-48
2023/07/22 04:06:07;;;;;;;10.60;5.43;;;12.00;99.90;;;;;;4973735;28;20069;-49
2023/07/22 04:08:33;;;;;;;10.10;5.63;;;12.10;99.90;;;;;;4953136;28;20039;-48
2023/07/22 04:10:59;;;;;;;7.90;4.68;;;12.10;99.90;;;;;;4970829;28;20548;-48
2023/07/22 04:13:26;;;;;;;10.73;5.32;;;12.10;99.90;;;;;;4969220;28;20073;-51
2023/07/22 04:15:52;;;;;;;8.88;5.13;;;12.20;99.90;;;;;;4970583;28;20610;-50
2023/07/22 04:18:18;;;;;;;10.88;5.10;;;12.20;99.90;;;;;;4975794;28;20031;-50
2023/07/22 04:20:45;;;;;;;11.23;4.90;;;12.30;99.90;;;;;;4967221;28;20034;-48
2023/07/22 04:23:11;;;;;;;11.93;5.30;;;12.30;99.90;;;;;;4972082;28;20396;-53
2023/07/22 04:25:44;;;;;;;9.10;4.82;;;12.30;99.90;;;;;;4971536;28;20049;-48
2023/07/22 04:28:11;;;;;;;10.25;5.38;;;12.40;99.90;;;;;;4972109;28;20046;-48
2023/07/22 04:30:37;;;;;;;10.80;5.03;;;12.40;99.90;;;;;;4970226;28;20077;-49
2023/07/22 04:33:05;;;;;;;9.00;4.85;;;12.40;99.90;;;;;;4973010;28;20112;-48
2023/07/22 04:35:35;;;;;;;8.25;4.90;;;12.50;99.90;;;;;;4975856;28;20057;-48
2023/07/22 04:38:01;;;;;;;9.07;4.85;;;12.50;99.90;;;;;;4967379;28;20402;-49
2023/07/22 04:40:27;;;;;;;8.35;4.60;;;12.60;99.90;;;;;;4965281;28;20599;-50
2023/07/22 04:42:52;;;;;;;10.93;4.60;;;12.60;99.90;;;;;;4960226;28;20077;-52
2023/07/22 04:45:18;;;;;;;11.60;5.05;;;12.60;99.90;;;;;;4954569;28;20443;-49
2023/07/22 04:47:46;;;;;;;7.88;4.93;;;12.70;99.90;;;;;;4974334;28;20042;-48
2023/07/22 04:50:13;;;;;;;9.50;5.10;;;12.70;99.90;;;;;;4951930;28;20096;-48
2023/07/22 04:52:40;;;;;;;10.50;4.85;;;12.70;99.90;;;;;;4948222;28;20105;-49
2023/07/22 04:55:08;;;;;;;8.63;5.28;;;12.80;99.90;;;;;;4949912;28;20081;-49
2023/07/22 04:57:40;;;;;;;9.57;5.20;;;12.80;99.90;;;;;;4959278;28;20057;-49
2023/07/22 05:00:09;;;;;;;11.45;5.43;;;12.80;99.90;;;;;;4968487;28;20529;-48
2023/07/22 05:02:35;;;;;;;9.00;5.32;;;12.80;99.90;;;;;;4955255;28;20054;-49
2023/07/22 05:05:01;;;;;;;10.65;5.68;;;12.90;99.90;;;;;;4946929;28;20078;-49
2023/07/22 05:07:27;;;;;;;10.40;5.20;;;12.90;99.90;;;;;;4942119;28;20038;-49
2023/07/22 05:09:53;;;;;;;10.57;5.82;;;12.90;99.90;;;;;;4965220;28;20511;-48
2023/07/22 05:12:19;;;;;;;10.07;5.50;;;12.90;99.90;;;;;;4964369;28;20614;-48
2023/07/22 05:14:49;;;;;;;10.63;6.18;;;13.00;99.90;;;;;;4970993;28;20042;-48
2023/07/22 05:17:15;;;;;;;9.77;6.60;;;13.00;99.90;;;;;;4974461;28;20059;-49
2023/07/22 05:19:41;;;;;;;9.90;5.70;;;13.00;99.90;;;;;;4974736;28;20047;-50
2023/07/22 05:22:07;;;;;;;9.73;6.10;;;13.00;99.90;;;;;;4970830;28;20086;-50
2023/07/22 05:24:33;;;;;;;13.05;6.30;;;13.10;99.90;;;;;;4976452;28;20042;-48
2023/07/22 05:26:59;;;;;;;11.07;5.90;;;13.10;99.90;;;;;;4967289;28;20065;-51
2023/07/22 05:29:25;;;;;;;12.43;6.15;;;13.10;99.90;;;;;;4969929;28;20483;-50
2023/07/22 05:31:51;;;;;;;12.98;6.13;;;13.20;99.90;;;;;;4954996;28;20595;-48
2023/07/22 05:34:17;;;;;;;10.35;6.43;;;13.20;99.90;;;;;;4959536;28;20054;-49
2023/07/22 05:36:43;;;;;;;11.55;6.57;;;13.30;99.90;;;;;;4956142;28;20172;-48
2023/07/22 05:39:08;;;;;;;13.02;6.82;;;13.40;99.90;;;;;;4967804;28;20089;-52
2023/07/22 05:41:34;;;;;;;13.07;6.95;;;13.40;99.90;;;;;;4968620;28;20133;-49
2023/07/22 05:44:00;;;;;;;10.57;6.65;;;13.50;99.90;;;;;;4971197;28;20039;-49
2023/07/22 05:46:26;;;;;;;13.90;7.15;;;13.60;99.90;;;;;;4965438;28;21117;-49
2023/07/22 05:48:52;;;;;;;12.60;7.20;;;13.60;99.90;;;;;;4963639;28;20093;-48
2023/07/22 05:51:18;;;;;;;12.88;7.43;;;13.70;99.90;;;;;;4972782;28;20561;-50
2023/07/22 05:53:44;;;;;;;12.45;7.53;;;13.80;99.90;;;;;;4972104;28;20057;-49
2023/07/22 05:56:10;;;;;;;13.23;7.32;;;13.90;99.90;;;;;;4970595;28;20049;-49
2023/07/22 05:58:36;;;;;;;12.73;6.82;;;13.90;99.90;;;;;;4970095;28;20878;-50
2023/07/22 06:01:02;;;;;;;13.32;6.85;;;14.00;99.90;;;;;;4969388;28;20650;-48
2023/07/22 06:03:28;;;;;;;10.48;6.90;;;14.00;99.90;;;;;;4967247;28;20046;-48
2023/07/22 06:05:54;;;;;;;11.55;7.82;;;14.10;99.90;;;;;;4964983;28;20335;-48
2023/07/22 06:08:20;;;;;;;11.85;7.53;;;14.20;99.90;;;;;;4967479;28;20183;-49
2023/07/22 06:10:45;;;;;;;13.75;7.60;;;14.30;99.90;;;;;;4968300;28;20038;-48
2023/07/22 06:13:11;;;;;;;10.63;7.20;;;14.30;99.90;;;;;;4958089;28;20057;-48
2023/07/22 06:15:37;;;;;;;14.25;7.95;;;14.40;99.90;;;;;;4975733;28;20077;-48
2023/07/22 06:18:03;;;;;;;18.13;7.78;;;14.50;99.90;;;;;;4974944;28;20043;-49
2023/07/22 06:20:29;;;;;;;17.33;7.57;;;14.50;99.90;;;;;;4953632;28;20085;-51
2023/07/22 06:22:55;;;;;;;14.70;8.07;;;14.60;99.90;;;;;;4973193;28;20054;-48
2023/07/22 06:25:21;;;;;;;15.07;8.10;;;14.70;99.90;;;;;;4958165;28;20552;-48
2023/07/22 06:27:47;;;;;;;13.15;7.65;;;14.70;99.90;;;;;;4967112;28;20473;-48
2023/07/22 06:30:12;;;;;;;12.95;7.50;;;14.70;99.90;;;;;;4976142;28;20500;-51
2023/07/22 06:32:39;;;;;;;12.35;8.18;;;14.80;99.90;;;;;;4965318;28;20348;-48
2023/07/22 06:35:05;;;;;;;15.70;8.27;;;14.80;99.90;;;;;;4969330;28;20078;-50
2023/07/22 06:37:31;;;;;;;14.90;8.00;;;14.90;99.90;;;;;;4952463;28;20083;-48
2023/07/22 06:39:58;;;;;;;14.70;8.52;;;14.90;99.90;;;;;;4974646;28;20128;-49
2023/07/22 06:42:23;;;;;;;13.02;8.00;;;15.00;99.90;;;;;;4973004;28;20054;-48
2023/07/22 06:44:49;;;;;;;12.70;7.75;;;15.10;99.90;;;;;;4972764;28;20509;-52
2023/07/22 06:47:15;;;;;;;15.68;8.52;;;15.20;99.90;;;;;;4949338;28;20034;-50
2023/07/22 06:49:41;;;;;;;14.38;8.85;;;15.30;99.90;;;;;;4966634;28;20039;-49
2023/07/22 06:52:07;;;;;;;15.82;8.68;;;15.40;99.90;;;;;;4968485;28;20131;-52
2023/07/22 06:54:34;;;;;;;14.18;8.93;;;15.50;99.90;;;;;;4946182;28;20526;-49
2023/07/22 06:57:00;;;;;;;15.20;8.90;;;15.50;99.90;;;;;;4970925;28;20144;-49
2023/07/22 06:59:26;;;;;;;16.75;8.70;;;15.60;99.90;;;;;;4959150;28;20034;-50
2023/07/22 07:01:52;;;;;;;18.10;9.07;;;15.70;99.90;;;;;;4952628;28;20050;-50
2023/07/22 07:04:18;;;;;;;14.10;8.77;;;15.70;99.90;;;;;;4941503;28;20183;-49
2023/07/22 07:06:45;;;;;;;16.05;9.27;;;15.90;99.90;;;;;;4964526;28;20049;-51
2023/07/22 07:09:11;;;;;;;15.20;8.80;;;16.00;99.90;;;;;;4962434;28;20786;-51
2023/07/22 07:11:37;;;;;;;12.90;8.65;;;16.20;99.90;;;;;;4963498;28;20039;-49
2023/07/22 07:14:03;;;;;;;16.77;8.60;;;16.30;99.90;;;;;;4966606;28;20057;-49
2023/07/22 07:16:31;;;;;;;13.32;8.25;;;16.30;99.90;;;;;;4965424;28;20058;-51
2023/07/22 07:18:58;;;;;;;13.80;8.27;;;16.40;99.90;;;;;;4949526;28;20050;-50
2023/07/22 07:21:24;;;;;;;11.98;8.20;;;16.40;99.90;;;;;;4964193;28;20663;-51
2023/07/22 07:23:51;;;;;;;13.30;8.50;;;16.50;99.90;;;;;;4966422;28;20129;-53
2023/07/22 07:26:17;;;;;;;18.17;8.98;;;16.50;99.90;;;;;;4967579;28;20057;-49
2023/07/22 07:28:43;;;;;;;12.27;8.43;;;16.50;99.90;;;;;;4968736;28;20039;-51
2023/07/22 07:31:09;;;;;;;13.98;8.35;;;16.50;99.90;;;;;;4966414;28;20034;-49
2023/07/22 07:33:34;;;;;;;19.63;8.80;;;16.50;99.90;;;;;;4964337;28;20471;-49
2023/07/22 07:36:00;;;;;;;13.70;8.63;;;16.50;99.90;;;;;;4963591;28;20125;-49
2023/07/22 07:38:26;;;;;;;13.27;8.57;;;16.50;99.90;;;;;;4964293;28;20053;-51
2023/07/22 07:41:08;;;;;;;16.48;9.50;;;16.60;99.90;;;;;;4967520;28;20596;-50
2023/07/22 07:43:35;;;;;;;16.30;9.70;;;16.70;99.90;;;;;;4964863;28;20445;-50
2023/07/22 07:46:21;;;;;;;15.50;8.68;;;16.70;99.90;;;;;;4970726;28;20034;-49
2023/07/22 07:48:51;;;;;;;17.70;9.43;;;16.70;99.90;;;;;;4969669;28;20043;-49
2023/07/22 07:51:18;;;;;;;14.30;8.88;;;16.80;99.90;;;;;;4964881;28;20622;-48
2023/07/22 07:53:46;;;;;;;18.10;9.25;;;16.80;99.90;;;;;;4968200;28;20046;-49
2023/07/22 07:56:13;;;;;;;15.85;8.57;;;16.90;99.90;;;;;;4967012;28;20173;-49
2023/07/22 07:58:39;;;;;;;15.85;9.07;;;17.10;99.90;;;;;;4963238;28;20352;-49
2023/07/22 08:01:06;;;;;;;17.20;8.80;;;17.20;99.90;;;;;;4967632;28;20049;-49
2023/07/22 08:03:33;;;;;;;16.48;8.63;;;17.20;99.90;;;;;;4955361;28;20066;-52
2023/07/22 08:05:59;;;;;;;14.05;8.40;;;17.30;99.90;;;;;;4961107;28;21991;-49
2023/07/22 08:08:24;;;;;;;12.93;7.78;;;17.40;99.90;;;;;;4966061;28;20460;-48
2023/07/22 08:11:04;;;;;;;13.60;8.07;;;17.50;99.90;;;;;;4964552;28;20053;-49
2023/07/22 08:13:31;;;;;;;11.15;8.23;;;17.70;99.90;;;;;;4968663;28;20042;-49
2023/07/22 08:16:05;;;;;;;14.95;8.50;;;17.80;99.90;;;;;;4970659;28;20911;-48
2023/07/22 08:18:32;;;;;;;14.77;7.45;;;17.90;99.90;;;;;;4969690;28;20129;-50
2023/07/22 08:20:58;;;;;;;13.30;7.63;;;17.90;99.90;;;;;;4971644;28;20043;-49
2023/07/22 08:23:24;;;;;;;15.80;8.15;;;18.00;99.90;;;;;;4968460;28;20046;-50
2023/07/22 08:25:50;;;;;;;13.13;7.55;;;18.10;99.90;;;;;;4969460;28;20038;-50
2023/07/22 08:28:16;;;;;;;11.13;7.90;;;18.10;99.90;;;;;;4963094;28;20125;-49
2023/07/22 08:30:42;;;;;;;10.98;7.20;;;18.20;99.90;;;;;;4949859;28;20042;-49
2023/07/22 08:33:09;;;;;;;12.27;7.57;;;18.20;99.90;;;;;;4967313;28;20039;-50
2023/07/22 08:35:39;;;;;;;11.95;7.35;;;18.20;99.90;;;;;;4969221;28;20050;-49
2023/07/22 08:38:05;;;;;;;10.07;7.05;;;18.20;99.90;;;;;;4952110;28;20047;-49
2023/07/22 08:40:41;;;;;;;11.48;7.15;;;18.20;99.90;;;;;;4970642;28;20512;-50
2023/07/22 08:43:11;;;;;;;9.52;6.93;;;18.20;99.90;;;;;;4974776;28;20042;-49
2023/07/22 08:45:38;;;;;;;12.95;7.00;;;18.20;99.90;;;;;;4969720;28;20885;-49
2023/07/22 08:48:09;;;;;;;9.80;7.10;;;18.30;99.90;;;;;;4968472;28;20564;-51
2023/07/22 08:50:44;;;;;;;10.88;7.25;;;18.40;99.90;;;;;;4960858;28;20085;-49
2023/07/22 08:53:13;;;;;;;11.98;7.05;;;18.50;99.90;;;;;;4963930;28;20046;-50
2023/07/22 08:55:42;;;;;;;9.82;6.57;;;18.70;99.90;;;;;;4958927;28;20047;-49
2023/07/22 08:58:11;;;;;;;9.82;6.70;;;18.80;99.90;;;;;;4964225;28;20044;-49
2023/07/22 09:00:38;;;;;;;10.48;7.47;;;18.90;99.90;;;;;;4965624;28;20104;-50
2023/07/22 09:03:04;;;;;;;11.00;6.80;;;18.90;99.90;;;;;;4951409;28;20134;-49
2023/07/22 09:05:33;;;;;;;9.23;6.35;;;18.90;99.90;;;;;;4953973;28;20455;-49
2023/07/22 09:08:01;;;;;;;10.15;7.15;;;19.00;99.90;;;;;;4945472;28;20577;-49
2023/07/22 09:10:28;;;;;;;9.90;7.00;;;19.00;99.90;;;;;;4965080;28;20491;-50
2023/07/22 09:12:54;;;;;;;9.75;6.25;;;19.10;99.90;;;;;;4956981;28;20097;-48
2023/07/22 09:15:21;;;;;;;9.02;6.40;;;19.10;99.90;;;;;;4950564;28;20045;-50
2023/07/22 09:17:47;;;;;;;8.80;5.78;;;19.10;99.90;;;;;;4959803;28;20062;-49
2023/07/22 09:20:14;;;;;;;7.53;5.22;;;19.00;99.90;;;;;;4964940;28;20050;-50
2023/07/22 09:22:44;;;;;;;9.23;6.53;;;19.00;99.90;;;;;;4968732;28;20670;-49
2023/07/22 09:25:24;;;;;;;6.93;4.88;;;18.90;99.90;;;;;;4969641;28;20113;-50
2023/07/22 09:27:52;;;;;;;7.93;5.20;;;18.70;99.90;;;;;;4965640;28;20066;-50
2023/07/22 09:30:21;;;;;;;8.05;5.18;;;18.60;99.90;;;;;;4971326;28;20042;-52
2023/07/22 09:32:47;;;;;;;10.75;5.72;;;18.50;99.90;;;;;;4971686;28;20177;-50
2023/07/22 09:35:13;;;;;;;10.50;5.60;;;18.40;99.90;;;;;;4972732;28;20038;-50
2023/07/22 09:37:39;;;;;;;11.02;6.93;;;18.30;99.90;;;;;;4956301;28;20047;-49
2023/07/22 09:40:19;;;;;;;12.50;7.20;;;18.20;99.90;;;;;;4970986;28;20043;-50
2023/07/22 09:42:50;;;;;;;19.35;8.95;;;18.00;99.90;;;;;;4951781;28;20058;-50
2023/07/22 09:45:17;;;;;;;12.07;7.97;;;17.80;99.90;;;;;;4965938;28;20050;-50
2023/07/22 09:47:45;;;;;;;12.63;7.40;;;17.70;99.90;;;;;;4967020;28;20042;-50
2023/07/22 09:50:16;;;;;;;11.40;8.23;;;17.50;99.90;;;;;;4962056;28;20054;-49
2023/07/22 09:52:50;;;;;;;13.90;8.43;;;17.60;99.90;;;;;;4950048;28;20494;-49
2023/07/22 09:55:18;;;;;;;16.35;9.27;;;17.60;99.90;;;;;;4967534;28;20034;-50
2023/07/22 09:57:53;;;;;;;13.85;8.88;;;17.50;99.90;;;;;;4968151;28;20062;-49
2023/07/22 10:00:20;;;;;;;13.50;9.07;;;17.60;99.90;;;;;;4953674;28;20045;-51
2023/07/22 10:02:49;;;;;;;17.85;9.88;;;17.60;99.90;;;;;;4973641;28;20050;-49
2023/07/22 10:05:19;;;;;;;13.43;8.40;;;17.70;99.90;;;;;;4972800;28;20045;-50
2023/07/22 10:07:57;;;;;;;14.32;9.05;;;17.80;99.90;;;;;;4975225;28;20045;-51
2023/07/22 10:10:31;;;;;;;13.32;8.18;;;17.90;99.90;;;;;;4978174;28;20031;-49
2023/07/22 10:12:57;;;;;;;12.13;7.35;;;17.90;99.90;;;;;;4977054;28;20512;-49
2023/07/22 10:15:25;;;;;;;10.45;7.28;;;18.00;99.90;;;;;;4979076;28;20486;-50
2023/07/22 10:17:53;;;;;;;13.77;7.13;;;17.90;99.90;;;;;;4964983;28;20553;-49
2023/07/22 10:20:20;;;;;;;12.38;7.45;;;17.90;99.90;;;;;;4977301;28;20050;-50
2023/07/22 10:22:47;;;;;;;11.00;7.47;;;17.80;99.90;;;;;;4977434;28;20050;-48
2023/07/22 10:25:16;;;;;;;9.75;7.13;;;17.80;99.90;;;;;;4961182;28;20046;-46
2023/07/22 10:27:42;;;;;;;10.02;7.05;;;17.80;99.90;;;;;;4976762;28;20393;-49
2023/07/22 10:30:14;;;;;;;11.30;7.13;;;17.70;99.90;;;;;;4975421;28;20046;-48
2023/07/22 10:32:43;;;;;;;13.68;8.10;;;17.70;99.90;;;;;;4960220;28;20049;-50
2023/07/22 10:35:17;;;;;;;11.20;7.20;;;17.80;99.90;;;;;;4953920;28;20046;-48
2023/07/22 10:37:45;;;;;;;10.63;7.25;;;17.80;99.90;;;;;;4971008;28;20049;-49
2023/07/22 10:40:29;;;;;;;12.38;7.53;;;17.80;99.90;;;;;;4975316;28;20405;-47
2023/07/22 10:43:03;;;;;;;11.73;8.13;;;17.90;99.90;;;;;;4955921;28;20046;-48
2023/07/22 10:45:31;;;;;;;11.77;7.43;;;17.90;99.90;;;;;;4971678;28;20058;-49
2023/07/22 10:48:02;;;;;;;11.00;7.30;;;17.90;99.90;;;;;;4972209;28;20031;-52
2023/07/22 10:50:49;;;;;;;11.52;6.57;;;18.00;99.90;;;;;;4972061;28;20046;-48
2023/07/22 10:53:23;;;;;;;9.68;6.20;;;18.00;99.90;;;;;;4970064;28;20163;-47
2023/07/22 10:56:24;;;;;;;6.38;5.15;;;17.90;99.90;;;;;;4972439;28;20050;-49
2023/07/22 10:58:50;;;;;;;8.05;5.30;;;17.90;99.90;;;;;;4973161;28;20511;-48
2023/07/22 11:01:34;;;;;;;9.13;5.53;;;17.80;99.90;;;;;;4973312;28;20495;-48
2023/07/22 11:04:12;;;;;;;8.45;5.00;;;17.80;99.90;;;;;;4973796;28;21131;-50
2023/07/22 11:06:59;;;;;;;6.38;5.03;;;17.70;99.90;;;;;;4975560;28;20042;-48
2023/07/22 11:09:33;;;;;;;7.75;5.43;;;17.60;99.90;;;;;;4939832;28;20500;-48
2023/07/22 11:11:59;;;;;;;6.70;4.97;;;17.50;99.90;;;;;;4954522;28;20038;-48
2023/07/22 11:14:27;;;;;;;8.75;5.68;;;17.40;99.90;;;;;;4972118;28;20535;-46
2023/07/22 11:16:56;;;;;;;7.63;5.28;;;17.40;99.90;;;;;;4953693;28;20066;-52
2023/07/22 11:19:26;;;;;;;7.85;5.60;;;17.40;99.90;;;;;;4971439;28;20046;-49
2023/07/22 11:21:53;;;;;;;7.57;5.32;;;17.40;99.90;;;;;;4969442;28;20046;-48
2023/07/22 11:24:20;;;;;;;8.00;5.88;;;17.40;99.90;;;;;;4975421;28;20400;-48
2023/07/22 11:26:47;;;;;;;7.68;5.40;;;17.30;99.90;;;;;;4970876;28;20057;-51
2023/07/22 11:29:14;;;;;;;7.18;5.15;;;17.30;99.90;;;;;;4973282;28;20189;-47
2023/07/22 11:31:42;;;;;;;7.20;5.57;;;17.30;99.90;;;;;;4973288;28;20169;-48
2023/07/22 11:34:20;;;;;;;6.13;4.55;;;17.30;99.90;;;;;;4971219;28;20046;-47
2023/07/22 11:36:47;;;;;;;7.70;4.72;;;17.30;99.90;;;;;;4965114;28;20050;-49
2023/07/22 11:39:18;;;;;;;6.20;4.60;;;17.20;99.90;;;;;;4967324;28;20117;-48
2023/07/22 11:41:45;;;;;;;8.57;5.30;;;17.20;99.90;;;;;;4964402;28;20436;-48
2023/07/22 11:44:13;;;;;;;6.18;4.70;;;17.20;99.90;;;;;;4972064;28;20096;-48
2023/07/22 11:47:03;;;;;;;7.55;4.65;;;17.20;99.90;;;;;;4968772;28;20042;-50
2023/07/22 11:49:30;;;;;;;5.97;4.80;;;17.20;99.90;;;;;;4970709;28;20121;-53
2023/07/22 11:52:02;;;;;;;7.50;5.28;;;17.10;99.90;;;;;;4971499;28;20511;-51
2023/07/22 11:54:28;;;;;;;7.78;5.50;;;17.10;99.90;;;;;;4943430;28;20038;-49
2023/07/22 11:56:55;;;;;;;9.63;6.43;;;17.10;99.90;;;;;;4941007;28;20744;-49
2023/07/22 11:59:44;;;;;;;9.15;6.30;;;17.10;99.90;;;;;;4946243;28;20108;-49
2023/07/22 12:02:17;;;;;;;8.38;6.18;;;17.20;99.90;;;;;;4946733;28;20049;-49
2023/07/22 12:04:50;;;;;;;8.15;6.25;;;17.20;99.90;;;;;;4950109;28;20046;-49
2023/07/22 12:07:42;;;;;;;11.63;6.50;;;17.30;99.90;;;;;;4932142;28;20047;-49
2023/07/22 12:10:09;;;;;;;9.05;6.80;;;17.40;99.90;;;;;;4947601;28;20066;-49
2023/07/22 12:12:45;;;;;;;8.55;6.90;;;17.40;99.90;;;;;;4948749;28;20041;-49
2023/07/22 12:15:15;;;;;;;8.68;7.35;;;17.40;99.90;;;;;;4948325;28;20043;-49
2023/07/22 12:17:45;;;;;;;10.63;6.90;;;17.30;99.90;;;;;;4950192;28;20471;-48
2023/07/22 12:20:11;;;;;;;12.65;7.57;;;17.20;99.90;;;;;;4950396;28;20125;-52
2023/07/22 12:22:37;;;;;;;9.32;7.03;;;17.10;99.90;;;;;;4949373;28;20065;-50
2023/07/22 12:25:03;;;;;;;9.13;7.15;;;17.10;99.90;;;;;;4947872;28;20043;-49
2023/07/22 12:27:29;;;;;;;12.10;8.10;;;17.00;99.90;;;;;;4949538;28;20035;-48
2023/07/22 12:29:55;;;;;;;12.13;8.25;;;17.00;99.90;;;;;;4933966;28;20051;-51
2023/07/22 12:32:21;;;;;;;10.55;8.30;;;17.00;99.90;;;;;;4949737;28;20413;-51
2023/07/22 12:34:47;;;;;;;13.27;8.60;;;16.90;99.90;;;;;;4954166;28;20057;-50
2023/07/22 12:37:12;;;;;;;12.32;9.02;;;16.90;99.90;;;;;;4944717;28;20043;-49
2023/07/22 12:39:38;;;;;;;12.07;8.90;;;17.00;99.90;;;;;;4948657;28;20042;-50
2023/07/22 12:42:04;;;;;;;12.38;9.45;;;17.00;99.90;;;;;;4949493;28;20045;-48
2023/07/22 12:44:30;;;;;;;11.85;9.15;;;17.10;99.90;;;;;;4937068;28;20567;-49